Matagorda, TX (77457)

1:06 PM CST on January 19, 2018 (GMT -0600)
Selkirk Island | | Change Station

Elev 43 ft 28.77 °N, 95.99 °W | Updated 49 seconds ago

Overcast
Overcast
63.9 °F
Feels Like 63.9 °F
N
4.0
Wind Variable Wind from North

Today
High -- | Low -- °F
--% Chance of Precip.
Yesterday
High -- | Low -- °F
Precip. -- in
Pressure 30.15 in
Visibility 10.0 miles
Clouds Mostly Cloudy 3600 ft
Mostly Cloudy 8000 ft
Overcast 9500 ft
Dew Point 57 °F
Humidity 79%
Rainfall 0.07 in
Snow Depth Not available.
7:17 AM 5:52 PM
Waxing Crescent, 7% visible
METAR KPSX 191853Z AUTO 11021G28KT 10SM BKN036 BKN080 OVC095 18/13 A3015 RMK AO2 PK WND 11030/1816 SLP208 T01780128
Pressure 30.15 in
Visibility 10.0 miles
Clouds Mostly Cloudy 3600 ft
Mostly Cloudy 8000 ft
Overcast 9500 ft
Dew Point 57 °F
Humidity 79%
Rainfall 0.07 in
Snow Depth Not available.
7:17 AM 5:52 PM
Waxing Crescent, 7% visible
METAR KPSX 191853Z AUTO 11021G28KT 10SM BKN036 BKN080 OVC095 18/13 A3015 RMK AO2 PK WND 11030/1816 SLP208 T01780128

Get Severe Weather Alerts

Thanks for signing up!

Be on the lookout for a verification email in your inbox.

You'll start receiving the daily forecast at 6 AM.

×

10-Day Weather Forecast

Almanac

Astronomy

Jan. 19, 2018 Rise Set
Actual Time
Civil Twilight
Nautical Twilight
Astronomical Twilight
Moon
Length of Visible Light
Length of Day
Tomorrow will be .
, % of the Moon is Illuminated

Today's Extremes

State Highs State Lows

Community

WunderPhotos

Category 6

Welcome to Category 6. This is the collective home for Weather Underground's featured writeups by Dr. Jeff Masters (right), Bob Henson (left), Chris Burt, and other regular contributors.

Nearby

Air Quality

  Air Quality AQ Index Pollutant
Not available.

Snow Depth

Station Depth Elevation

Earthquake Activity

City Distance Mag. Time & Date
Minimum magnitude displayed is 2.5.

Coastal Water Temperatures

Place Temperature

Stations

Nearby Weather Stations

Station Location Temp. Windchill Dew Point Humidity Wind Precip. Elev Updated Type
                   

Watches & Warnings

There are currently no watches in effect.